Time;durP1;ratioP1;P1;durP2;ratioP2;P2;SDS_P1;SDS_P2;PMS_P1;PMS_P2;Temp;Humidity;BMP_temperature;BMP_pressure;BME280_temperature;BME280_humidity;BME280_pressure;Samples;Min_cycle;Max_cycle;Signal;HPM_P1;HPM_P2
2023/01/08 00:00:44;;;;;;;19.20;9.80;;;;;;;-7.20;76.00;100833.02;106636;1302;139869;-71
2023/01/08 00:03:11;;;;;;;12.70;6.90;;;;;;;-7.21;76.22;100829.74;106701;1299;22128;-71
2023/01/08 00:05:38;;;;;;;15.70;8.20;;;;;;;-7.23;76.08;100831.29;106769;1302;22154;-70
2023/01/08 00:08:07;;;;;;;;;;;;;;;-7.23;76.12;100831.86;106627;1302;138522;-71
2023/01/08 00:10:34;;;;;;;14.00;7.40;;;;;;;-7.25;76.02;100833.41;106701;1296;22847;-70
2023/01/08 00:13:01;;;;;;;12.10;7.50;;;;;;;-7.30;76.13;100839.39;106649;1302;138977;-70
2023/01/08 00:15:29;;;;;;;;;;;;;;;-7.31;76.24;100840.05;106686;1294;22431;-70
2023/01/08 00:17:56;;;;;;;14.00;9.10;;;;;;;-7.31;76.45;100837.36;106718;1302;22891;-70
2023/01/08 00:20:23;;;;;;;12.60;7.10;;;;;;;-7.31;76.28;100835.23;106665;1302;138436;-70
2023/01/08 00:22:50;;;;;;;;;;;;;;;-7.31;76.41;100835.60;106756;1302;23014;-69
2023/01/08 00:25:17;;;;;;;10.40;5.20;;;;;;;-7.28;76.59;100836.10;106628;1302;124659;-70
2023/01/08 00:27:44;;;;;;;13.40;7.70;;;;;;;-7.29;76.52;100839.88;106748;1302;22244;-70
2023/01/08 00:30:11;;;;;;;14.30;7.40;;;;;;;-7.30;76.43;100838.88;106540;1303;138681;-69
2023/01/08 00:32:38;;;;;;;14.20;8.10;;;;;;;-7.31;76.22;100840.23;106745;1302;22656;-70
2023/01/08 00:35:05;;;;;;;;;;;;;;;-7.32;76.34;100841.99;106801;1302;23090;-70
2023/01/08 00:37:32;;;;;;;13.00;6.80;;;;;;;-7.31;76.44;100841.25;106610;1302;124716;-70
2023/01/08 00:39:58;;;;;;;18.30;8.30;;;;;;;-7.37;76.62;100834.08;106788;1302;22152;-73
2023/01/08 00:42:25;;;;;;;14.40;7.40;;;;;;;-7.34;76.45;100842.73;106698;1302;138471;-70
2023/01/08 00:44:52;;;;;;;;;;;;;;;-7.36;76.52;100837.44;106747;1302;22362;-70
2023/01/08 00:47:19;;;;;;;15.30;7.70;;;;;;;-7.39;76.29;100832.15;106777;1302;22138;-70
2023/01/08 00:49:45;;;;;;;;;;;;;;;-7.44;76.31;100833.40;106634;1302;138647;-70
2023/01/08 00:52:12;;;;;;;15.50;7.60;;;;;;;-7.47;76.33;100834.67;106741;1302;22605;-71
2023/01/08 00:54:39;;;;;;;12.10;6.30;;;;;;;-7.49;76.53;100830.91;106806;1302;138502;-70
2023/01/08 00:57:05;;;;;;;14.50;7.60;;;;;;;-7.48;76.75;100832.45;106780;1302;22138;-70
2023/01/08 00:59:32;;;;;;;13.70;7.50;;;;;;;-7.48;76.76;100832.44;106809;1302;22127;-72
2023/01/08 01:01:59;;;;;;;15.30;8.60;;;;;;;-7.48;76.59;100828.36;106654;1288;138982;-71
2023/01/08 01:04:26;;;;;;;14.60;7.70;;;;;;;-7.46;77.00;100826.29;106779;1302;22187;-70
2023/01/08 01:06:53;;;;;;;;;;;;;;;-7.44;76.93;100826.67;106717;1302;138407;-70
2023/01/08 01:09:19;;;;;;;16.20;8.30;;;;;;;-7.46;76.76;100825.57;106738;1302;22374;-70
2023/01/08 01:11:46;;;;;;;17.10;8.50;;;;;;;-7.48;77.04;100820.23;106730;1295;22258;-70
2023/01/08 01:14:13;;;;;;;15.90;9.90;;;;;;;-7.49;77.02;100815.54;106716;1302;140022;-70
2023/01/08 01:16:41;;;;;;;17.20;9.50;;;;;;;-7.52;77.16;100818.63;106824;1294;22955;-71
2023/01/08 01:19:08;;;;;;;18.40;8.90;;;;;;;-7.55;76.96;100818.86;106747;1294;138625;-70
2023/01/08 01:21:35;;;;;;;17.10;9.50;;;;;;;-7.58;77.07;100817.26;106760;1299;22287;-70
2023/01/08 01:24:02;;;;;;;;;;;;;;;-7.61;77.00;100815.23;106914;1300;23620;-70
2023/01/08 01:26:29;;;;;;;15.80;8.80;;;;;;;-7.67;76.96;100813.35;106625;1302;125164;-70
2023/01/08 01:28:56;;;;;;;20.50;8.00;;;;;;;-7.74;76.97;100817.02;106716;1302;22123;-70
2023/01/08 01:31:24;;;;;;;18.40;8.70;;;;;;;-7.79;76.89;100818.66;106660;1302;138041;-69
2023/01/08 01:33:50;;;;;;;19.20;9.30;;;;;;;-7.83;77.05;100821.42;106733;1294;22226;-70
2023/01/08 01:36:18;;;;;;;;;;;;;;;-7.86;77.15;100820.90;106811;1302;139111;-70
2023/01/08 01:38:45;;;;;;;16.10;8.60;;;;;;;-7.90;77.10;100825.06;106773;1302;22227;-70
2023/01/08 01:41:27;;;;;;;17.30;8.40;;;;;;;-7.95;77.07;100828.92;106782;1294;22187;-69
2023/01/08 01:43:58;;;;;;;13.10;8.00;;;;;;;-7.97;77.14;100830.30;106670;1302;139739;-70
2023/01/08 01:46:34;;;;;;;17.60;7.50;;;;;;;-7.99;77.38;100826.02;103071;1295;22479;-71
2023/01/08 01:49:13;;;;;;;16.30;8.40;;;;;;;-8.00;77.38;100825.58;102410;1294;138486;-69
2023/01/08 01:51:46;;;;;;;15.70;8.30;;;;;;;-8.01;77.39;100824.80;106685;1296;22223;-70
2023/01/08 01:54:13;;;;;;;18.80;8.40;;;;;;;-8.03;77.58;100822.97;106577;1302;138469;-70
2023/01/08 01:56:40;;;;;;;15.80;8.20;;;;;;;-8.04;77.49;100818.10;106665;1302;22215;-70
2023/01/08 01:59:07;;;;;;;14.80;8.00;;;;;;;-8.06;77.48;100816.69;106563;1288;22369;-70
2023/01/08 02:01:33;;;;;;;;;;;;;;;-8.07;77.49;100816.78;106616;1302;138756;-69
2023/01/08 02:04:01;;;;;;;15.90;7.50;;;;;;;-8.08;77.59;100818.61;106671;1303;22359;-70
2023/01/08 02:06:32;;;;;;;18.70;8.50;;;;;;;-8.09;77.79;100812.85;106571;1299;138395;-69
2023/01/08 02:09:23;;;;;;;14.30;8.20;;;;;;;-8.07;77.74;100814.79;106609;1297;22292;-69
2023/01/08 02:12:18;;;;;;;19.30;9.30;;;;;;;-8.03;77.81;100823.71;106697;1302;22349;-69
2023/01/08 02:14:47;;;;;;;15.60;7.90;;;;;;;-8.01;77.67;100823.90;106755;1299;22104;-69
2023/01/08 02:17:15;;;;;;;15.50;8.20;;;;;;;-8.03;77.54;100814.20;106762;1292;22295;-69
2023/01/08 02:19:48;;;;;;;18.70;9.90;;;;;;;-8.06;77.65;100815.40;106535;1297;138453;-69
2023/01/08 02:22:36;;;;;;;21.70;9.30;;;;;;;-8.05;77.61;100814.30;106723;1302;22204;-70
2023/01/08 02:25:15;;;;;;;21.00;8.90;;;;;;;-8.04;77.76;100815.45;106668;1298;139804;-70
2023/01/08 02:27:43;;;;;;;18.20;9.70;;;;;;;-8.04;77.74;100817.43;106773;1302;22250;-70
2023/01/08 02:30:10;;;;;;;18.60;9.30;;;;;;;-8.07;77.71;100819.21;106719;1302;22092;-70
2023/01/08 02:32:38;;;;;;;19.10;10.10;;;;;;;-8.09;77.77;100817.44;106509;1288;138293;-70
2023/01/08 02:35:05;;;;;;;30.20;11.80;;;;;;;-8.09;77.82;100820.56;106728;1297;22134;-70
2023/01/08 02:37:32;;;;;;;18.90;8.50;;;;;;;-8.07;77.89;100824.16;106601;1302;139704;-70
2023/01/08 02:40:05;;;;;;;;;;;;;;;-8.07;77.98;100820.60;105163;1293;24223;-70
2023/01/08 02:42:34;;;;;;;17.50;8.50;;;;;;;-8.06;77.80;100819.16;106675;1281;124879;-70
2023/01/08 02:45:19;;;;;;;31.20;10.20;;;;;;;-8.07;77.73;100823.39;106742;1302;22161;-70
2023/01/08 02:47:53;;;;;;;19.80;8.70;;;;;;;-8.09;77.83;100821.14;106809;1302;22134;-71
2023/01/08 02:50:21;;;;;;;15.40;8.70;;;;;;;-8.09;78.03;100817.41;106532;1302;138484;-71
2023/01/08 02:52:56;;;;;;;19.30;8.60;;;;;;;-8.07;78.11;100818.48;106702;1287;22141;-71
2023/01/08 02:55:23;;;;;;;22.40;10.20;;;;;;;-8.04;78.13;100821.79;106565;1302;138156;-70
2023/01/08 02:57:50;;;;;;;;;;;;;;;-8.02;78.12;100814.27;106809;1295;22434;-70
2023/01/08 03:00:17;;;;;;;21.00;9.70;;;;;;;-7.99;78.31;100815.15;106694;1302;124387;-69
2023/01/08 03:02:43;;;;;;;19.50;8.80;;;;;;;-7.98;78.43;100817.16;106774;1302;22094;-70
2023/01/08 03:05:16;;;;;;;;;;;;;;;-7.96;78.42;100817.20;106790;1302;23068;-70
2023/01/08 03:07:42;;;;;;;18.40;9.40;;;;;;;-7.95;78.14;100822.39;106600;1290;124740;-70
2023/01/08 03:10:10;;;;;;;;;;;;;;;-7.94;78.27;100824.12;106713;1302;22397;-69
2023/01/08 03:12:40;;;;;;;23.00;10.30;;;;;;;-7.93;78.31;100825.63;106652;1302;125231;-70
2023/01/08 03:15:08;;;;;;;24.60;10.70;;;;;;;-7.94;78.16;100820.03;106775;1302;23243;-70
2023/01/08 03:17:36;;;;;;;21.90;10.00;;;;;;;-7.94;78.34;100824.32;106717;1302;22913;-70
2023/01/08 03:20:14;;;;;;;21.10;9.60;;;;;;;-7.95;78.33;100823.26;106511;1302;138114;-70
2023/01/08 03:22:43;;;;;;;22.90;10.60;;;;;;;-7.93;78.29;100825.43;106616;1302;22147;-70
2023/01/08 03:25:09;;;;;;;19.50;9.00;;;;;;;-7.90;78.38;100824.67;106560;1302;138587;-69
2023/01/08 03:27:37;;;;;;;;;;;;;;;-7.88;78.39;100812.76;106918;1302;22333;-69
2023/01/08 03:30:04;;;;;;;19.40;8.60;;;;;;;-7.87;78.45;100805.63;106786;1302;23046;-70
2023/01/08 03:32:31;;;;;;;21.50;9.10;;;;;;;-7.87;78.46;100807.71;106671;1294;137833;-70
2023/01/08 03:34:58;;;;;;;21.30;10.30;;;;;;;-7.85;78.47;100812.02;106698;1302;22695;-70
2023/01/08 03:37:28;;;;;;;19.00;8.80;;;;;;;-7.84;78.61;100818.45;106608;1297;138731;-70
2023/01/08 03:39:58;;;;;;;21.20;10.00;;;;;;;-7.81;78.63;100818.95;105484;1301;116622;-70
2023/01/08 03:44:20;;;;;;;26.30;11.10;;;;;;;-7.80;78.51;100815.59;100020;1342;545091;-69
2023/01/08 03:46:48;;;;;;;;;;;;;;;-7.79;78.67;100822.37;102439;1290;22456;-70
2023/01/08 03:49:14;;;;;;;24.10;10.10;;;;;;;-7.76;78.63;100823.88;102183;1292;123457;-70
2023/01/08 03:51:42;;;;;;;25.40;11.50;;;;;;;-7.77;78.62;100823.59;102291;1290;24289;-70
2023/01/08 03:54:14;;;;;;;26.70;12.40;;;;;;;-7.80;78.50;100824.38;102081;1298;22926;-71
2023/01/08 03:56:41;;;;;;;28.20;13.30;;;;;;;-7.84;78.54;100824.63;106578;1297;22254;-70
2023/01/08 03:59:09;;;;;;;;;;;;;;;-7.86;78.80;100822.32;106616;1302;194016;-70
2023/01/08 04:01:36;;;;;;;25.10;10.70;;;;;;;-7.89;78.78;100823.19;106567;1302;124079;-72
2023/01/08 04:04:02;;;;;;;;;;;;;;;-7.94;78.87;100814.58;106777;1302;22479;-71
2023/01/08 04:06:29;;;;;;;20.30;9.60;;;;;;;-7.93;78.93;100820.48;106622;1302;125051;-72
2023/01/08 04:08:56;;;;;;;;;;;;;;;-7.92;78.97;100820.45;106745;1288;22445;-71
2023/01/08 04:11:22;;;;;;;22.50;9.90;;;;;;;-7.91;79.29;100821.20;106713;1302;23300;-71
2023/01/08 04:13:49;;;;;;;;;;;;;;;-7.87;79.39;100821.67;106661;1302;138684;-72
2023/01/08 04:16:16;;;;;;;24.80;9.60;;;;;;;-7.86;79.44;100822.48;106627;1303;22240;-72
2023/01/08 04:18:43;;;;;;;;;;;;;;;-7.85;79.49;100826.98;106525;1302;138571;-72
2023/01/08 04:21:09;;;;;;;18.30;9.90;;;;;;;-7.83;79.82;100827.19;106676;1304;22176;-72
2023/01/08 04:23:36;;;;;;;;;;;;;;;-7.81;79.84;100827.95;106615;1305;22346;-71
2023/01/08 04:26:04;;;;;;;25.70;10.50;;;;;;;-7.78;79.68;100826.15;106587;1287;124435;-71
2023/01/08 04:28:31;;;;;;;25.50;11.90;;;;;;;-7.78;79.68;100823.83;106595;1296;22131;-71
2023/01/08 04:30:58;;;;;;;20.50;9.50;;;;;;;-7.76;79.93;100819.83;106534;1305;138358;-71
2023/01/08 04:33:24;;;;;;;;;;;;;;;-7.73;79.85;100822.10;106638;1304;22341;-71
2023/01/08 04:35:51;;;;;;;19.50;9.20;;;;;;;-7.71;79.92;100827.02;106613;1304;22162;-70
2023/01/08 04:38:18;;;;;;;;;;;;;;;-7.73;79.99;100820.14;106512;1305;138286;-70
2023/01/08 04:40:45;;;;;;;29.60;10.60;;;;;;;-7.65;80.11;100831.19;106639;1303;22194;-70
2023/01/08 04:43:11;;;;;;;;;;;;;;;-7.60;80.20;100832.96;106485;1305;139964;-70
2023/01/08 04:45:38;;;;;;;19.40;9.20;;;;;;;-7.58;80.05;100831.92;106609;1288;22793;-70
2023/01/08 04:48:05;;;;;;;;;;;;;;;-7.55;80.14;100828.33;106627;1305;23072;-70
2023/01/08 04:50:32;;;;;;;21.00;10.10;;;;;;;-7.50;80.21;100826.90;106558;1304;123917;-71
2023/01/08 04:52:59;;;;;;;;;;;;;;;-7.43;80.36;100823.47;106581;1305;22317;-71
2023/01/08 04:55:25;;;;;;;18.30;8.40;;;;;;;-7.40;79.98;100825.14;106565;1281;124065;-70
2023/01/08 04:57:52;;;;;;;;;;;;;;;-7.40;79.94;100825.67;106634;1305;23328;-71
2023/01/08 05:00:19;;;;;;;25.10;10.50;;;;;;;-7.45;79.95;100823.04;106538;1304;125082;-71
2023/01/08 05:02:46;;;;;;;;;;;;;;;-7.38;79.93;100826.23;106742;1303;22449;-71
2023/01/08 05:05:13;;;;;;;24.10;11.10;;;;;;;-7.35;79.61;100830.95;106639;1302;22168;-72
2023/01/08 05:07:39;;;;;;;;;;;;;;;-7.37;79.68;100834.11;106679;1302;137889;-72
2023/01/08 05:10:06;;;;;;;20.90;9.70;;;;;;;-7.38;79.55;100837.77;106641;1290;23112;-71
2023/01/08 05:12:33;;;;;;;23.60;9.20;;;;;;;-7.41;79.67;100840.77;106483;1304;138345;-72
2023/01/08 05:15:00;;;;;;;;;;;;;;;-7.41;79.77;100846.25;106679;1305;23563;-71
2023/01/08 05:17:27;;;;;;;19.80;9.30;;;;;;;-7.40;79.66;100843.14;106723;1303;23256;-71
2023/01/08 05:19:53;;;;;;;;;;;;;;;-7.39;79.69;100847.65;106491;1291;137751;-70
2023/01/08 05:22:20;;;;;;;20.50;9.70;;;;;;;-7.38;79.80;100847.58;106617;1303;22968;-71
2023/01/08 05:24:47;;;;;;;;;;;;;;;-7.37;80.02;100845.77;106517;1305;138806;-70
2023/01/08 05:27:13;;;;;;;23.00;11.40;;;;;;;-7.34;79.96;100846.04;106623;1304;22192;-70
2023/01/08 05:29:40;;;;;;;;;;;;;;;-7.33;79.91;100843.67;106671;1303;22322;-71
2023/01/08 05:32:13;;;;;;;29.40;11.80;;;;;;;-7.30;79.98;100847.38;106478;1290;124189;-70
2023/01/08 05:34:40;;;;;;;24.00;9.80;;;;;;;-7.27;79.89;100847.30;106505;1306;22430;-71
2023/01/08 05:37:07;;;;;;;;;;;;;;;-7.27;79.85;100846.39;106468;1297;138698;-71
2023/01/08 05:39:33;;;;;;;28.90;11.50;;;;;;;-7.23;79.90;100846.83;106620;1304;22847;-71
2023/01/08 05:42:00;;;;;;;;;;;;;;;-7.21;79.74;100843.52;106831;1288;22441;-71
2023/01/08 05:44:27;;;;;;;25.10;11.90;;;;;;;-7.22;79.54;100846.42;106844;1302;125189;-71
2023/01/08 05:46:54;;;;;;;20.80;10.50;;;;;;;-7.22;79.66;100846.80;106909;1292;22842;-71
2023/01/08 05:49:20;;;;;;;;;;;;;;;-7.22;79.57;100852.80;106827;1302;138543;-71
2023/01/08 05:51:47;;;;;;;27.20;15.60;;;;;;;-7.22;79.70;100852.95;106865;1285;22193;-71
2023/01/08 05:54:14;;;;;;;31.90;13.20;;;;;;;-7.23;79.63;100850.22;106772;1302;138044;-69
2023/01/08 05:56:42;;;;;;;;;;;;;;;-7.23;79.77;100852.66;106890;1301;22370;-71
2023/01/08 05:59:10;;;;;;;25.60;11.40;;;;;;;-7.20;79.67;100860.77;106861;1302;22176;-71
2023/01/08 06:01:37;;;;;;;21.70;11.70;;;;;;;-7.21;79.65;100866.10;106762;1302;140177;-71
2023/01/08 06:04:04;;;;;;;24.60;12.40;;;;;;;-7.21;79.85;100869.14;106867;1302;22232;-71
2023/01/08 06:06:30;;;;;;;;;;;;;;;-7.21;79.72;100865.92;106805;1299;138352;-71
2023/01/08 06:08:57;;;;;;;21.80;10.80;;;;;;;-7.20;79.78;100863.05;106866;1302;22205;-71
2023/01/08 06:11:24;;;;;;;;;;;;;;;-7.20;79.85;100866.95;106953;1299;22363;-71
2023/01/08 06:13:51;;;;;;;26.90;13.80;;;;;;;-7.22;79.74;100864.45;106712;1302;124286;-72
2023/01/08 06:16:19;;;;;;;40.40;16.20;;;;;;;-7.22;79.90;100866.57;106863;1294;22223;-71
2023/01/08 06:18:46;;;;;;;29.70;14.40;;;;;;;-7.26;79.83;100862.23;106862;1302;138423;-70
2023/01/08 06:21:13;;;;;;;28.20;14.30;;;;;;;-7.24;79.86;100865.95;106987;1300;22249;-72
2023/01/08 06:23:40;;;;;;;;;;;;;;;-7.23;79.86;100865.02;106871;1302;22497;-71
2023/01/08 06:26:06;;;;;;;23.70;11.20;;;;;;;-7.20;79.97;100862.55;106807;1278;124290;-71
2023/01/08 06:28:33;;;;;;;30.60;12.70;;;;;;;-7.21;79.90;100862.17;106852;1302;22184;-71
2023/01/08 06:31:00;;;;;;;38.90;17.00;;;;;;;-7.24;79.95;100862.27;106905;1300;139008;-71
2023/01/08 06:33:27;;;;;;;43.00;17.40;;;;;;;-7.25;79.79;100858.83;106897;1302;22266;-71
2023/01/08 06:35:54;;;;;;;32.50;13.70;;;;;;;-7.27;79.80;100855.29;106811;1300;22881;-71
2023/01/08 06:38:21;;;;;;;;;;;;;;;-7.28;80.04;100855.35;106748;1287;138083;-71
2023/01/08 06:40:48;;;;;;;54.50;20.90;;;;;;;-7.25;80.20;100858.33;106841;1301;22139;-70
2023/01/08 06:43:15;;;;;;;;;;;;;;;-7.23;80.21;100859.88;106795;1301;139179;-70
2023/01/08 06:45:42;;;;;;;44.20;17.20;;;;;;;-7.20;80.16;100865.70;106920;1293;22135;-70
2023/01/08 06:48:08;;;;;;;;;;;;;;;-7.19;80.14;100867.73;106498;1300;22444;-71
2023/01/08 06:50:35;;;;;;;43.70;18.90;;;;;;;-7.17;80.06;100868.13;102421;1286;124045;-70
2023/01/08 06:53:02;;;;;;;;;;;;;;;-7.17;80.14;100862.99;102793;1282;22452;-71
2023/01/08 06:55:29;;;;;;;36.90;13.30;;;;;;;-7.15;80.10;100861.95;102563;1288;124204;-70
2023/01/08 06:57:56;;;;;;;43.20;16.90;;;;;;;-7.13;80.35;100860.77;102612;1302;24630;-71
2023/01/08 07:00:24;;;;;;;60.20;18.60;;;;;;;-7.10;80.42;100863.70;102473;1286;138190;-69
2023/01/08 07:02:52;;;;;;;63.20;19.70;;;;;;;-7.11;80.19;100860.83;106626;1307;22127;-71
2023/01/08 07:05:19;;;;;;;50.60;19.10;;;;;;;-7.10;80.31;100858.11;106972;1294;22297;-71
2023/01/08 07:07:45;;;;;;;;;;;;;;;-7.09;80.45;100860.33;106872;1300;138841;-71
2023/01/08 07:10:12;;;;;;;28.40;11.30;;;;;;;-7.06;80.26;100860.44;106982;1287;22923;-71
2023/01/08 07:12:39;;;;;;;;;;;;;;;-7.04;80.37;100859.20;106933;1300;138733;-71
2023/01/08 07:15:06;;;;;;;48.40;16.50;;;;;;;-7.01;80.37;100862.53;106751;1300;22485;-71
2023/01/08 07:17:33;;;;;;;41.60;16.30;;;;;;;-6.98;80.30;100861.09;106825;1300;22364;-70
2023/01/08 07:20:00;;;;;;;;;;;;;;;-6.99;80.15;100861.84;106834;1300;138922;-72
2023/01/08 07:22:27;;;;;;;91.50;29.00;;;;;;;-7.00;80.20;100862.61;106913;1300;23483;-73
2023/01/08 07:24:53;;;;;;;;;;;;;;;-7.04;80.41;100853.59;106814;1293;138453;-73
2023/01/08 07:27:20;;;;;;;30.70;13.80;;;;;;;-6.98;80.37;100860.71;106797;1300;23194;-73
2023/01/08 07:29:47;;;;;;;;;;;;;;;-6.96;80.64;100859.34;106895;1300;23464;-73
2023/01/08 07:32:13;;;;;;;25.90;12.20;;;;;;;-6.92;80.43;100857.98;106879;1300;124260;-72
2023/01/08 07:34:40;;;;;;;;;;;;;;;-6.91;80.35;100861.94;106981;1300;23091;-72
2023/01/08 07:37:07;;;;;;;29.40;12.90;;;;;;;-6.89;80.61;100864.05;106895;1290;124595;-73
2023/01/08 07:39:34;;;;;;;;;;;;;;;-6.85;80.57;100866.27;106998;1299;23118;-71
2023/01/08 07:42:00;;;;;;;24.40;11.80;;;;;;;-6.81;80.55;100864.05;106953;1299;22389;-72
2023/01/08 07:44:28;;;;;;;34.60;14.70;;;;;;;-6.77;80.57;100866.73;106776;1292;138439;-72
2023/01/08 07:46:54;;;;;;;24.70;11.10;;;;;;;-6.73;80.67;100861.84;106928;1294;22823;-73
2023/01/08 07:49:21;;;;;;;57.60;19.10;;;;;;;-6.70;80.38;100862.71;106922;1300;139222;-73
2023/01/08 07:51:48;;;;;;;45.20;13.50;;;;;;;-6.70;80.38;100861.77;107150;1298;22104;-72
2023/01/08 07:54:15;;;;;;;28.00;11.60;;;;;;;-6.70;80.28;100862.70;107051;1289;138601;-72
2023/01/08 07:56:42;;;;;;;40.80;16.50;;;;;;;-6.71;80.34;100864.04;107098;1302;22922;-73
2023/01/08 07:59:08;;;;;;;;;;;;;;;-6.71;80.29;100860.86;105675;1292;22901;-73
2023/01/08 08:01:35;;;;;;;50.40;20.20;;;;;;;-6.68;80.44;100863.98;102619;1286;126847;-73
2023/01/08 08:04:02;;;;;;;77.90;26.50;;;;;;;-6.65;80.60;100863.37;102637;1291;26435;-73
2023/01/08 08:06:29;;;;;;;;;;;;;;;-6.61;80.51;100867.97;102580;1285;139094;-73
2023/01/08 08:08:56;;;;;;;36.00;13.70;;;;;;;-6.61;80.73;100863.55;102688;1284;22592;-73
2023/01/08 08:11:23;;;;;;;122.80;38.60;;;;;;;-6.49;80.72;100872.94;102536;1285;22470;-73
2023/01/08 08:13:50;;;;;;;;;;;;;;;-6.44;80.58;100875.21;106418;1309;139109;-72
2023/01/08 08:16:19;;;;;;;57.20;22.30;;;;;;;-6.42;80.33;100878.23;106918;1299;22163;-72
2023/01/08 08:18:46;;;;;;;43.00;18.20;;;;;;;-6.41;80.18;100877.98;106788;1302;139880;-72
2023/01/08 08:21:12;;;;;;;;;;;;;;;-6.46;79.65;100871.79;106910;1302;22379;-72
2023/01/08 08:23:39;;;;;;;71.30;22.40;;;;;;;-6.42;79.71;100876.84;106869;1302;22170;-73
2023/01/08 08:26:06;;;;;;;53.30;27.40;;;;;;;-6.42;79.67;100880.35;106748;1302;140319;-73
2023/01/08 08:28:33;;;;;;;35.30;15.90;;;;;;;-6.42;79.67;100879.65;106821;1302;22583;-73
2023/01/08 08:31:00;;;;;;;;;;;;;;;-6.40;79.89;100877.40;106741;1291;140198;-71
2023/01/08 08:33:26;;;;;;;27.00;11.20;;;;;;;-6.35;79.91;100879.50;106942;1299;22225;-72
2023/01/08 08:35:53;;;;;;;19.60;10.90;;;;;;;-6.30;79.81;100880.49;106853;1302;22193;-72
2023/01/08 08:38:20;;;;;;;23.70;9.90;;;;;;;-6.25;79.96;100880.79;106858;1302;138504;-73
2023/01/08 08:40:49;;;;;;;20.50;9.40;;;;;;;-6.18;80.03;100879.20;106824;1302;22587;-72
2023/01/08 08:43:16;;;;;;;;;;;;;;;-6.10;79.95;100880.32;106852;1290;139163;-72
2023/01/08 08:45:43;;;;;;;19.10;10.90;;;;;;;-6.01;79.72;100874.55;106934;1302;22146;-68
2023/01/08 08:48:10;;;;;;;21.60;12.30;;;;;;;-5.95;79.63;100875.70;106963;1285;22165;-72
2023/01/08 08:50:37;;;;;;;21.30;10.90;;;;;;;-5.91;79.36;100869.80;106811;1294;139021;-72
2023/01/08 08:53:04;;;;;;;28.90;12.80;;;;;;;-5.86;79.02;100863.39;106938;1299;22120;-73
2023/01/08 08:55:31;;;;;;;21.40;10.60;;;;;;;-5.87;78.43;100858.38;106847;1300;138450;-71
2023/01/08 08:58:03;;;;;;;28.30;12.80;;;;;;;-5.86;78.26;100855.85;107032;1300;22173;-74
2023/01/08 09:00:30;;;;;;;29.90;12.90;;;;;;;-5.81;77.97;100862.32;106840;1300;139384;-75
2023/01/08 09:02:57;;;;;;;;;;;;;;;-5.83;77.46;100861.25;106938;1275;22381;-70
2023/01/08 09:05:24;;;;;;;34.00;13.80;;;;;;;-5.88;76.88;100858.28;106986;1298;22133;-72
2023/01/08 09:07:51;;;;;;;;;;;;;;;-5.94;76.91;100855.39;106858;1299;138353;-73
2023/01/08 09:10:17;;;;;;;22.60;11.00;;;;;;;-5.96;77.15;100853.66;106904;1285;23041;-72
2023/01/08 09:12:44;;;;;;;;;;;;;;;-5.97;77.21;100850.87;106767;1289;141136;-72
2023/01/08 09:15:11;;;;;;;22.40;11.10;;;;;;;-5.98;77.07;100851.84;106834;1280;22195;-71
2023/01/08 09:17:37;;;;;;;22.10;12.40;;;;;;;-5.99;77.16;100850.46;106830;1302;22091;-73
2023/01/08 09:20:05;;;;;;;24.50;12.50;;;;;;;-5.98;76.94;100846.55;106839;1299;138965;-72
2023/01/08 09:22:32;;;;;;;27.30;13.60;;;;;;;-5.97;76.90;100846.63;106970;1296;23315;-71
2023/01/08 09:24:58;;;;;;;;;;;;;;;-5.95;76.86;100850.88;106807;1300;138790;-71
2023/01/08 09:27:25;;;;;;;19.50;10.40;;;;;;;-5.91;77.15;100848.82;106864;1302;22185;-72
2023/01/08 09:29:52;;;;;;;;;;;;;;;-5.87;77.23;100844.39;106908;1302;22328;-72
2023/01/08 09:32:18;;;;;;;33.60;15.00;;;;;;;-5.80;77.11;100842.80;106801;1302;124427;-72
2023/01/08 09:34:45;;;;;;;28.70;13.30;;;;;;;-5.77;76.77;100840.96;106958;1300;22332;-73
2023/01/08 09:37:12;;;;;;;25.20;12.90;;;;;;;-5.77;76.58;100836.85;106825;1291;140092;-72
2023/01/08 09:39:38;;;;;;;23.60;12.00;;;;;;;-5.75;76.82;100835.10;106910;1302;22249;-74
2023/01/08 09:42:09;;;;;;;26.20;11.20;;;;;;;-5.69;77.04;100835.55;106941;1299;22203;-71
2023/01/08 09:44:37;;;;;;;26.00;12.80;;;;;;;-5.63;77.09;100828.98;106728;1300;140759;-73
2023/01/08 09:47:05;;;;;;;19.10;11.50;;;;;;;-5.56;76.86;100828.09;106897;1302;22145;-73
2023/01/08 09:49:39;;;;;;;25.60;12.70;;;;;;;-5.49;76.77;100820.83;106712;1302;138624;-72
2023/01/08 09:52:10;;;;;;;20.40;11.00;;;;;;;-5.44;76.48;100821.94;106848;1277;22229;-71
2023/01/08 09:54:37;;;;;;;23.10;12.50;;;;;;;-5.46;76.41;100816.83;106739;1299;140643;-72
2023/01/08 09:57:03;;;;;;;22.80;11.00;;;;;;;-5.39;76.22;100825.80;106878;1299;22255;-72
2023/01/08 09:59:30;;;;;;;18.80;10.70;;;;;;;-5.36;76.13;100819.20;106895;1285;23247;-71
2023/01/08 10:01:57;;;;;;;24.80;10.50;;;;;;;-5.31;75.98;100816.02;106724;1287;138755;-71
2023/01/08 10:04:25;;;;;;;;;;;;;;;-5.27;75.99;100815.86;106921;1295;23102;-75
2023/01/08 10:06:57;;;;;;;17.00;10.50;;;;;;;-5.21;76.18;100811.30;106859;1299;124573;-72
2023/01/08 10:09:29;;;;;;;16.90;10.10;;;;;;;-5.14;76.22;100806.41;106813;1288;22231;-72
2023/01/08 10:12:00;;;;;;;20.00;10.00;;;;;;;-5.07;76.13;100808.54;106849;1292;22316;-72
2023/01/08 10:14:29;;;;;;;20.20;9.40;;;;;;;-5.02;75.99;100811.08;106741;1294;138549;-73
2023/01/08 10:17:01;;;;;;;14.90;8.10;;;;;;;-4.95;75.56;100814.83;106842;1280;22331;-72
2023/01/08 10:19:27;;;;;;;26.40;14.10;;;;;;;-4.96;75.18;100817.01;106745;1300;138340;-73
2023/01/08 10:21:54;;;;;;;;;;;;;;;-4.99;75.16;100818.12;106942;1303;22351;-71
2023/01/08 10:24:35;;;;;;;20.20;11.30;;;;;;;-4.97;75.13;100813.53;106771;1302;124435;-72
2023/01/08 10:27:20;;;;;;;28.60;11.80;;;;;;;-4.95;74.81;100816.40;106901;1304;22293;-73
2023/01/08 10:29:49;;;;;;;16.90;9.30;;;;;;;-4.98;74.32;100814.52;106805;1302;22259;-73
2023/01/08 10:32:17;;;;;;;21.30;9.30;;;;;;;-5.04;74.37;100809.83;102515;1292;138657;-72
2023/01/08 10:34:54;;;;;;;35.60;14.90;;;;;;;-5.07;74.44;100805.85;102763;1291;22510;-72
2023/01/08 10:37:21;;;;;;;18.90;9.50;;;;;;;-5.12;74.18;100806.94;102585;1291;139395;-73
2023/01/08 10:39:48;;;;;;;18.70;9.70;;;;;;;-5.15;74.32;100805.25;102643;1291;22501;-70
2023/01/08 10:42:16;;;;;;;24.60;10.70;;;;;;;-5.17;74.59;100800.67;102495;1281;138766;-71
2023/01/08 10:45:04;;;;;;;24.40;10.30;;;;;;;-5.18;74.66;100797.02;102762;1284;22600;-70
2023/01/08 10:47:33;;;;;;;22.70;11.10;;;;;;;-5.19;74.52;100793.19;102500;1287;24402;-71
2023/01/08 10:50:02;;;;;;;16.90;9.30;;;;;;;-5.19;74.90;100795.02;102480;1285;138911;-71
2023/01/08 10:52:33;;;;;;;19.30;10.60;;;;;;;-5.17;75.17;100789.88;102645;1293;22483;-72
2023/01/08 10:55:20;;;;;;;21.10;10.50;;;;;;;-5.14;75.08;100792.77;102451;1283;139295;-72
2023/01/08 10:57:57;;;;;;;16.20;9.40;;;;;;;-5.12;74.91;100794.42;102516;1285;22523;-72
2023/01/08 11:00:29;;;;;;;17.60;9.50;;;;;;;-5.12;74.95;100795.08;102397;1292;138823;-72
2023/01/08 11:02:58;;;;;;;16.70;9.80;;;;;;;-5.12;75.03;100795.83;106920;1302;22075;-74
2023/01/08 11:05:33;;;;;;;20.50;11.00;;;;;;;-5.14;74.95;100793.68;106840;1302;22230;-72
2023/01/08 11:08:00;;;;;;;20.20;9.90;;;;;;;-5.14;74.85;100789.12;106697;1303;139160;-72
2023/01/08 11:10:27;;;;;;;23.50;11.60;;;;;;;-5.14;75.00;100788.90;106892;1296;22240;-72
2023/01/08 11:12:57;;;;;;;;;;;;;;;-5.14;75.01;100774.87;106830;1305;140353;-72
2023/01/08 11:15:35;;;;;;;22.20;11.20;;;;;;;-5.13;74.88;100774.31;106903;1300;23124;-72
2023/01/08 11:18:13;;;;;;;20.80;10.50;;;;;;;-5.12;75.14;100773.66;106888;1298;22112;-72
2023/01/08 11:20:40;;;;;;;22.90;12.70;;;;;;;-5.08;75.02;100777.05;106910;1305;22992;-71
2023/01/08 11:23:17;;;;;;;59.30;22.90;;;;;;;-5.05;75.09;100777.84;106877;1299;22879;-72
2023/01/08 11:26:12;;;;;;;35.70;17.40;;;;;;;-5.04;74.80;100775.44;106903;1282;138284;-73